Time;durP1;ratioP1;P1;durP2;ratioP2;P2;SDS_P1;SDS_P2;PMS_P1;PMS_P2;Temp;Humidity;BMP_temperature;BMP_pressure;BME280_temperature;BME280_humidity;BME280_pressure;Samples;Min_cycle;Max_cycle;Signal;HPM_P1;HPM_P2
2021/05/13 00:02:03;183828.00;0.61;318.08;0.00;0.00;0.62;;;;;17.00;1.00;;;;;;2257975;61;1002;-87
2021/05/13 00:04:29;0.00;0.00;0.62;0.00;0.00;0.62;;;;;16.80;1.00;;;;;;2261171;61;1540;-87
2021/05/13 00:06:55;0.00;0.00;0.62;0.00;0.00;0.62;;;;;16.80;1.00;;;;;;2258386;61;953;-87
2021/05/13 00:09:22;0.00;0.00;0.62;0.00;0.00;0.62;;;;;16.80;1.00;;;;;;2265316;61;1034;-87
2021/05/13 00:11:52;0.00;0.00;0.62;0.00;0.00;0.62;;;;;16.70;1.00;;;;;;2269101;61;1009;-86
2021/05/13 00:14:18;0.00;0.00;0.62;0.00;0.00;0.62;;;;;16.90;1.00;;;;;;2265222;61;1997;-87
2021/05/13 00:16:46;31589.00;0.11;55.33;0.00;0.00;0.62;;;;;17.10;1.00;;;;;;2268979;61;1139;-87
2021/05/13 00:19:15;12582.00;0.04;22.42;0.00;0.00;0.62;;;;;17.10;1.00;;;;;;2269017;61;923;-87
2021/05/13 00:21:43;47761.00;0.16;83.31;0.00;0.00;0.62;;;;;17.00;1.00;;;;;;2264309;61;932;-87
2021/05/13 00:24:12;123955.00;0.41;214.90;0.00;0.00;0.62;;;;;17.10;1.00;;;;;;2256373;61;1397;-88
2021/05/13 00:26:40;134824.00;0.45;233.65;0.00;0.00;0.62;;;;;16.60;1.00;;;;;;2252433;61;1022;-87
2021/05/13 00:29:08;0.00;0.00;0.62;0.00;0.00;0.62;;;;;16.10;1.00;;;;;;2252368;61;969;-86
2021/05/13 00:31:35;20931.00;0.07;36.88;0.00;0.00;0.62;;;;;15.80;1.00;;;;;;2242629;61;1058;-86
2021/05/13 00:34:03;64387.00;0.21;112.06;0.00;0.00;0.62;;;;;15.30;1.00;;;;;;2251729;61;1929;-87
2021/05/13 00:36:31;159101.00;0.53;275.49;394.00;0.00;1.30;;;;;15.30;1.00;;;;;;2240567;61;999;-87
2021/05/13 00:38:59;254769.00;0.85;440.15;28574.00;0.10;50.11;;;;;15.20;1.00;;;;;;2236574;61;1003;-87
2021/05/13 00:41:25;22930.00;0.08;40.34;0.00;0.00;0.62;;;;;15.30;1.00;;;;;;2238614;61;964;-88
2021/05/13 00:43:52;0.00;0.00;0.62;0.00;0.00;0.62;;;;;15.50;1.00;;;;;;2242527;61;1404;-88
2021/05/13 00:46:19;4691.00;0.02;8.75;0.00;0.00;0.62;;;;;15.50;1.00;;;;;;2253726;61;1032;-88
2021/05/13 00:48:46;458534.00;1.53;790.46;173912.00;0.58;301.00;;;;;15.30;1.00;;;;;;2260417;61;1169;-88
2021/05/13 00:51:15;18840.00;0.06;33.26;0.00;0.00;0.62;;;;;15.00;1.00;;;;;;2248388;61;1009;-87
2021/05/13 00:53:45;187401.00;0.62;324.23;33400.00;0.11;58.47;;;;;15.30;1.00;;;;;;2243573;61;1499;-88
2021/05/13 00:56:13;0.00;0.00;0.62;0.00;0.00;0.62;;;;;15.30;1.00;;;;;;2257019;61;2018;-87
2021/05/13 00:58:43;34842.00;0.12;60.96;0.00;0.00;0.62;;;;;15.10;1.00;;;;;;2257067;61;978;-87
2021/05/13 01:01:11;119048.00;0.40;206.44;51990.00;0.17;90.63;;;;;15.20;1.00;;;;;;2257059;61;1138;-88
2021/05/13 01:03:38;5048.00;0.02;9.37;0.00;0.00;0.62;;;;;15.50;1.00;;;;;;2260336;61;1387;-87
2021/05/13 01:06:06;224560.00;0.75;388.19;33196.00;0.11;58.11;;;;;15.80;1.00;;;;;;2257031;61;942;-88
2021/05/13 01:08:33;344644.00;1.15;594.66;133664.00;0.45;231.65;;;;;15.80;1.00;;;;;;2258654;61;999;-88
2021/05/13 01:10:59;74925.00;0.25;130.27;0.00;0.00;0.62;;;;;15.70;1.00;;;;;;2260293;61;1082;-88
2021/05/13 01:13:27;23158.00;0.08;40.74;0.00;0.00;0.62;;;;;15.90;1.00;;;;;;2253721;61;1321;-88
2021/05/13 01:16:05;0.00;0.00;0.62;0.00;0.00;0.62;;;;;16.00;1.00;;;;;;2260229;61;1936;-88
2021/05/13 01:18:31;172582.00;0.58;298.71;82880.00;0.28;144.01;;;;;16.10;1.00;;;;;;2256968;61;977;-88
2021/05/13 01:20:57;175310.00;0.58;303.41;19824.00;0.07;34.97;;;;;15.90;1.00;;;;;;2260350;61;1073;-87
2021/05/13 01:23:25;10096.00;0.03;18.12;0.00;0.00;0.62;;;;;15.90;1.00;;;;;;2260246;61;1405;-88
2021/05/13 01:25:55;64689.00;0.22;112.58;0.00;0.00;0.62;;;;;15.80;1.00;;;;;;2256974;61;1007;-87
2021/05/13 01:28:25;173642.00;0.58;300.54;83552.00;0.28;145.17;;;;;15.40;1.00;;;;;;2257768;61;993;-89
2021/05/13 01:30:54;169268.00;0.56;293.01;83961.00;0.28;145.88;;;;;15.30;1.00;;;;;;2257623;61;1006;-87
2021/05/13 01:33:22;180238.00;0.60;311.90;80369.00;0.27;139.67;;;;;15.10;1.00;;;;;;2257348;61;1468;-88
2021/05/13 01:35:50;204696.00;0.68;354.01;86085.00;0.29;149.55;;;;;15.00;1.00;;;;;;2257620;61;1912;-88
2021/05/13 01:38:18;225487.00;0.75;389.78;84711.00;0.28;147.17;;;;;14.80;1.00;;;;;;2264300;61;998;-88
2021/05/13 01:40:52;193305.00;0.64;334.40;83159.00;0.28;144.49;;;;;15.10;1.00;;;;;;2264982;61;1085;-88
2021/05/13 01:43:19;322414.00;1.07;556.45;80376.00;0.27;139.69;;;;;15.40;1.00;;;;;;2268750;61;1347;-88
2021/05/13 01:45:45;360390.00;1.20;621.72;83154.00;0.28;144.49;;;;;15.70;1.00;;;;;;2268301;61;959;-87
2021/05/13 01:48:12;616615.00;2.06;1062.92;135908.00;0.45;235.52;;;;;15.80;1.00;;;;;;2264942;61;1085;-87
2021/05/13 01:50:39;264340.00;0.88;456.61;79525.00;0.27;138.22;;;;;16.20;1.00;;;;;;2265025;61;1075;-88
2021/05/13 01:53:07;363159.00;1.21;626.48;77596.00;0.26;134.88;;;;;16.40;1.00;;;;;;2264182;61;1319;-87
2021/05/13 01:55:34;318817.00;1.06;550.26;83084.00;0.28;144.36;;;;;16.50;1.00;;;;;;2256140;61;1922;-87
2021/05/13 01:58:02;415049.00;1.38;715.68;115179.00;0.38;199.77;;;;;16.40;1.00;;;;;;2256240;61;968;-88
2021/05/13 02:00:29;252087.00;0.84;435.54;81473.00;0.27;141.58;;;;;16.50;1.00;;;;;;2252946;61;985;-88
2021/05/13 02:02:55;198844.00;0.66;343.93;70790.00;0.24;123.13;;;;;16.70;1.00;;;;;;2252868;61;1403;-88
2021/05/13 02:05:23;391645.00;1.31;675.44;83740.00;0.28;145.50;;;;;16.70;1.00;;;;;;2256207;61;1222;-88
2021/05/13 02:07:50;253506.00;0.85;437.98;80721.00;0.27;140.28;;;;;16.60;1.00;;;;;;2255743;61;1105;-87
2021/05/13 02:10:18;470964.00;1.57;811.85;112635.00;0.38;195.38;;;;;16.70;1.00;;;;;;2257378;61;1029;-88
2021/05/13 02:12:45;425743.00;1.42;734.07;79731.00;0.27;138.57;;;;;16.90;1.00;;;;;;2264852;61;1028;-88
2021/05/13 02:15:14;297586.00;0.99;513.77;92793.00;0.31;161.13;;;;;17.00;1.00;;;;;;2264065;61;2000;-87
2021/05/13 02:17:41;256892.00;0.86;443.80;86882.00;0.29;150.92;;;;;17.00;1.00;;;;;;2257502;61;991;-88
2021/05/13 02:20:11;268260.00;0.89;463.35;81742.00;0.27;142.05;;;;;17.10;1.00;;;;;;2264189;61;1009;-88
2021/05/13 02:22:39;266444.00;0.89;460.23;85228.00;0.28;148.07;;;;;17.10;1.00;;;;;;2260050;61;1113;-87
2021/05/13 02:25:06;318057.00;1.06;548.96;81483.00;0.27;141.60;;;;;17.00;1.00;;;;;;2260159;61;1433;-87
2021/05/13 02:27:33;467114.00;1.56;805.22;102098.00;0.34;177.19;;;;;16.70;1.00;;;;;;2250195;61;959;-87
2021/05/13 02:30:00;229155.00;0.76;396.10;78095.00;0.26;135.75;;;;;16.60;1.00;;;;;;2252077;61;990;-87
2021/05/13 02:32:27;346936.00;1.16;598.59;81325.00;0.27;141.33;;;;;16.80;1.00;;;;;;2253498;61;983;-87
2021/05/13 02:34:54;292146.00;0.97;504.42;84677.00;0.28;147.12;;;;;17.00;1.00;;;;;;2260071;61;1998;-87
2021/05/13 02:37:20;116654216.00;388.85;64301708.00;83538.00;0.28;145.15;;;;;17.10;1.00;;;;;;2253436;61;1081;-86
2021/05/13 02:39:47;220371.00;0.73;380.98;90614.00;0.30;157.37;;;;;17.00;1.00;;;;;;2251510;61;1133;-87
2021/05/13 02:42:13;317367.00;1.06;547.77;74264.00;0.25;129.13;;;;;16.70;1.00;;;;;;2248175;61;1189;-88
2021/05/13 02:44:40;274163.00;0.91;473.50;83330.00;0.28;144.79;;;;;16.60;1.00;;;;;;2240017;61;1419;-86
2021/05/13 02:47:06;320078.00;1.07;552.43;75180.00;0.25;130.71;;;;;16.50;1.00;;;;;;2241607;61;1030;-87
2021/05/13 02:49:33;260538.00;0.87;450.07;81643.00;0.27;141.88;;;;;16.20;1.00;;;;;;2240107;62;1008;-89
2021/05/13 02:52:00;321089.00;1.07;554.17;82352.00;0.27;143.10;;;;;16.10;1.00;;;;;;2240219;62;969;-88
2021/05/13 02:54:26;287085.00;0.96;495.72;86778.00;0.29;150.74;;;;;16.10;1.00;;;;;;2236820;62;1920;-87
2021/05/13 02:56:54;268915.00;0.90;464.48;81475.00;0.27;141.59;;;;;16.20;1.00;;;;;;2237730;61;1093;-88
2021/05/13 02:59:21;284158.00;0.95;490.69;85703.00;0.29;148.89;;;;;16.40;1.00;;;;;;2248099;61;1071;-88
2021/05/13 03:01:48;286910.00;0.96;495.42;78116.00;0.26;135.78;;;;;16.50;1.00;;;;;;2239672;61;1068;-87
2021/05/13 03:04:14;235623.00;0.79;407.22;74758.00;0.25;129.98;;;;;16.60;1.00;;;;;;2253353;61;1455;-88
2021/05/13 03:06:41;222326.00;0.74;384.35;81031.00;0.27;140.82;;;;;16.80;1.00;;;;;;2254356;61;1000;-85
2021/05/13 03:09:08;166938.00;0.56;288.99;75106.00;0.25;130.58;;;;;16.80;1.00;;;;;;2264701;61;1136;-86
2021/05/13 03:11:34;177730.00;0.59;307.58;82149.00;0.27;142.75;;;;;16.80;1.00;;;;;;2268540;61;960;-87
2021/05/13 03:14:02;228361.00;0.76;394.73;80351.00;0.27;139.64;;;;;16.20;1.00;;;;;;2268445;61;1397;-88
2021/05/13 03:16:30;168786.00;0.56;292.18;85251.00;0.28;148.11;;;;;15.00;1.00;;;;;;2264702;61;2009;-88
2021/05/13 03:18:57;271340.00;0.90;468.65;103734.00;0.35;180.02;;;;;15.00;1.00;;;;;;2268533;61;1031;-87
2021/05/13 03:21:28;187413.00;0.62;324.25;82041.00;0.27;142.56;;;;;14.40;1.00;;;;;;2264749;61;1085;-85
2021/05/13 06:02:23;1630897.00;5.44;2891.93;36959.00;0.12;64.63;;;;;26.50;1.00;;;;;;2266642;61;1172;-89
2021/05/13 06:46:55;992160.00;3.31;1718.59;0.00;0.00;0.62;;;;;29.50;1.00;;;;;;2274350;61;1132;-90
2021/05/13 06:53:34;563917.00;1.88;971.96;87607.00;0.29;152.18;;;;;29.40;1.00;;;;;;2258827;61;1237;-91
2021/05/13 06:56:14;;;;;;;;;;;;;;;;;;;;;
2021/05/13 07:13:16;;;;;;;;;;;;;;;;;;;;;
2021/05/13 07:40:36;1575790.00;5.25;2786.56;108923.00;0.36;188.97;;;;;29.00;1.00;;;;;;2274682;61;1263;-89
2021/05/13 07:43:34;385032.00;1.28;664.07;24373.00;0.08;42.84;;;;;28.20;1.00;;;;;;2272853;61;1153;-88
2021/05/13 07:49:45;721187.00;2.40;1244.00;70272.00;0.23;122.23;;;;;28.10;1.00;;;;;;2241945;61;1306;-89
2021/05/13 07:52:52;544437.00;1.81;938.37;0.00;0.00;0.62;;;;;28.70;1.00;;;;;;2243754;61;1293;-89
2021/05/13 07:58:47;35934.00;0.12;62.85;0.00;0.00;0.62;;;;;29.90;1.00;;;;;;2244478;61;1019;-89
2021/05/13 08:44:38;21630.00;0.07;38.09;0.00;0.00;0.62;;;;;27.30;1.00;;;;;;2185062;63;1388;-88
2021/05/13 08:47:09;207517.00;0.69;358.86;27364.00;0.09;48.02;;;;;26.20;1.00;;;;;;2187903;63;1067;-88
2021/05/13 08:49:35;181454.00;0.60;313.99;0.00;0.00;0.62;;;;;26.70;1.00;;;;;;2194064;63;1146;-88
2021/05/13 08:52:05;226358.00;0.75;391.28;0.00;0.00;0.62;;;;;26.70;1.00;;;;;;2194074;63;1037;-88
2021/05/13 08:54:32;107079.00;0.36;185.79;0.00;0.00;0.62;;;;;26.60;1.00;;;;;;2194273;63;1805;-88
2021/05/13 08:57:05;248912.00;0.83;430.08;10279.00;0.03;18.43;;;;;26.30;1.00;;;;;;2198524;63;2013;-89
2021/05/13 08:59:44;79566.00;0.27;138.29;0.00;0.00;0.62;;;;;24.60;1.00;;;;;;2209015;62;1096;-88
2021/05/13 09:02:11;34674.00;0.12;60.67;0.00;0.00;0.62;;;;;24.80;1.00;;;;;;2216558;62;1045;-89
2021/05/13 09:05:32;;;;;;;;;;;;;;;;;;;;;
2021/05/13 09:08:20;711349.00;2.37;1226.92;65273.00;0.22;113.59;;;;;26.50;1.00;;;;;;2215196;62;1051;-87
2021/05/13 09:11:11;235851.00;0.79;407.61;0.00;0.00;0.62;;;;;27.00;1.00;;;;;;2216932;62;1477;-88
2021/05/13 09:14:21;167571.00;0.56;290.08;0.00;0.00;0.62;;;;;26.90;1.00;;;;;;2215699;62;1152;-89
2021/05/13 09:40:54;238589.00;0.80;412.32;0.00;0.00;0.62;;;;;25.30;1.00;;;;;;2270926;61;959;-90
2021/05/13 09:43:22;367290.00;1.22;633.58;0.00;0.00;0.62;;;;;25.40;1.00;;;;;;2272222;61;1196;-89
2021/05/13 09:45:50;436451.00;1.45;752.48;0.00;0.00;0.62;;;;;24.60;1.00;;;;;;2272203;61;1693;-89
2021/05/13 09:48:33;592773.00;1.98;1021.74;24393.00;0.08;42.88;;;;;24.90;1.00;;;;;;2272289;61;1680;-89
2021/05/13 09:51:15;226666.00;0.76;391.81;0.00;0.00;0.62;;;;;25.20;1.00;;;;;;2271945;61;1106;-88
2021/05/13 09:53:42;200212.00;0.67;346.29;0.00;0.00;0.62;;;;;24.90;1.00;;;;;;2272195;61;940;-88
2021/05/13 09:56:24;179144.00;0.60;310.02;0.00;0.00;0.62;;;;;25.30;1.00;;;;;;2272094;61;1944;-89
2021/05/13 09:58:51;70742.00;0.24;123.04;0.00;0.00;0.62;;;;;25.80;1.00;;;;;;2272171;61;1673;-90
2021/05/13 10:01:18;23078.00;0.08;40.60;0.00;0.00;0.62;;;;;25.70;1.00;;;;;;2272260;61;1040;-89
2021/05/13 10:03:45;36822.00;0.12;64.39;0.00;0.00;0.62;;;;;26.00;1.00;;;;;;2272233;61;1042;-89
2021/05/13 10:06:12;39730.00;0.13;69.42;0.00;0.00;0.62;;;;;25.80;1.00;;;;;;2272208;61;1381;-89
2021/05/13 10:08:39;37222.00;0.12;65.08;0.00;0.00;0.62;;;;;25.60;1.00;;;;;;2272229;61;1131;-88
2021/05/13 10:11:06;0.00;0.00;0.62;0.00;0.00;0.62;;;;;24.90;1.00;;;;;;2262704;61;991;-89
2021/05/13 10:13:34;81517.00;0.27;141.66;0.00;0.00;0.62;;;;;25.10;1.00;;;;;;2260128;61;1147;-88
2021/05/13 10:16:01;152822.00;0.51;264.67;0.00;0.00;0.62;;;;;24.70;1.00;;;;;;2251332;61;2014;-89
2021/05/13 10:18:37;0.00;0.00;0.62;0.00;0.00;0.62;;;;;24.70;1.00;;;;;;2252139;61;1072;-87
2021/05/13 10:21:09;0.00;0.00;0.62;0.00;0.00;0.62;;;;;25.00;1.00;;;;;;2252148;61;1076;-87
2021/05/13 10:23:38;0.00;0.00;0.62;0.00;0.00;0.62;;;;;24.10;1.00;;;;;;2252130;61;1030;-86
2021/05/13 10:26:04;0.00;0.00;0.62;0.00;0.00;0.62;;;;;23.20;1.00;;;;;;2251922;61;1677;-86
2021/05/13 10:28:32;91539.00;0.31;158.97;0.00;0.00;0.62;;;;;23.10;1.00;;;;;;2253053;61;1049;-86
2021/05/13 10:31:03;0.00;0.00;0.62;0.00;0.00;0.62;;;;;23.10;1.00;;;;;;2255974;61;1046;-85
2021/05/13 10:33:46;0.00;0.00;0.62;0.00;0.00;0.62;;;;;22.70;1.00;;;;;;2258252;61;1053;-88
2021/05/13 10:36:16;124382.00;0.41;215.64;0.00;0.00;0.62;;;;;23.00;1.00;;;;;;2257355;61;1921;-88
2021/05/13 10:38:51;0.00;0.00;0.62;0.00;0.00;0.62;;;;;23.00;1.00;;;;;;2264057;61;1025;-88
2021/05/13 10:41:39;0.00;0.00;0.62;0.00;0.00;0.62;;;;;22.90;1.00;;;;;;2264045;61;938;-88
2021/05/13 10:44:37;0.00;0.00;0.62;0.00;0.00;0.62;;;;;22.80;1.00;;;;;;2246225;61;1125;-86
2021/05/13 10:47:07;131649.00;0.44;228.17;0.00;0.00;0.62;;;;;22.40;1.00;;;;;;2247928;61;1409;-85
2021/05/13 10:49:46;0.00;0.00;0.62;0.00;0.00;0.62;;;;;22.30;1.00;;;;;;2243746;61;1070;-87
2021/05/13 10:52:36;138419.00;0.46;239.85;0.00;0.00;0.62;;;;;22.00;1.00;;;;;;2251557;61;1061;-88
2021/05/13 10:55:05;0.00;0.00;0.62;0.00;0.00;0.62;;;;;21.50;1.00;;;;;;2251985;61;1997;-85
2021/05/13 10:57:49;0.00;0.00;0.62;0.00;0.00;0.62;;;;;21.70;1.00;;;;;;2252003;61;1407;-87
2021/05/13 11:00:28;0.00;0.00;0.62;0.00;0.00;0.62;;;;;21.70;1.00;;;;;;2244040;61;1026;-86
2021/05/13 11:02:57;0.00;0.00;0.62;0.00;0.00;0.62;;;;;21.80;1.00;;;;;;2244096;61;990;-86
2021/05/13 11:05:44;98102.00;0.33;170.30;14412.00;0.05;25.59;;;;;21.60;1.00;;;;;;2243964;61;1022;-87
2021/05/13 11:08:29;22536.00;0.08;39.66;0.00;0.00;0.62;;;;;21.70;1.00;;;;;;2243978;61;1136;-87
2021/05/13 11:11:01;99685.00;0.33;173.03;0.00;0.00;0.62;;;;;21.80;1.00;;;;;;2243868;61;1675;-86
2021/05/13 11:13:45;347537.00;1.16;599.63;0.00;0.00;0.62;;;;;22.00;1.00;;;;;;2239945;62;964;-87
2021/05/13 11:16:42;34732.00;0.12;60.77;0.00;0.00;0.62;;;;;21.40;1.00;;;;;;2240028;62;1907;-86
2021/05/13 11:19:21;125059.00;0.42;216.81;0.00;0.00;0.62;;;;;21.50;1.00;;;;;;2246846;61;1745;-86
2021/05/13 11:22:05;158792.00;0.53;274.96;0.00;0.00;0.62;;;;;21.50;1.00;;;;;;2255099;61;1251;-86
2021/05/13 11:24:33;98957.00;0.33;171.77;0.00;0.00;0.62;;;;;21.60;1.00;;;;;;2255885;61;1085;-86
2021/05/13 11:27:00;192005.00;0.64;332.16;0.00;0.00;0.62;;;;;21.80;1.00;;;;;;2255699;61;1568;-87
2021/05/13 11:29:26;145774.00;0.49;252.52;0.00;0.00;0.62;;;;;21.90;1.00;;;;;;2247844;61;1079;-86
2021/05/13 11:31:53;243553.00;0.81;420.86;0.00;0.00;0.62;;;;;21.50;1.00;;;;;;2252661;61;1091;-87
2021/05/13 11:34:20;471897.00;1.57;813.45;86537.00;0.29;150.33;;;;;21.50;1.00;;;;;;2259859;61;1128;-86
2021/05/13 11:36:47;547798.00;1.83;944.16;84185.00;0.28;146.27;;;;;21.50;1.00;;;;;;2259806;61;2011;-86
2021/05/13 11:39:17;236196.00;0.79;408.21;81957.00;0.27;142.42;;;;;21.30;1.00;;;;;;2253239;61;1085;-87
2021/05/13 11:41:45;171372.00;0.57;296.63;76656.00;0.26;133.26;;;;;21.40;1.00;;;;;;2249960;61;1026;-87
2021/05/13 11:44:12;4752.00;0.02;8.86;0.00;0.00;0.62;;;;;21.10;1.00;;;;;;2259726;61;1639;-88
2021/05/13 11:46:40;77022.00;0.26;133.89;0.00;0.00;0.62;;;;;21.10;1.00;;;;;;2260715;61;1324;-87
2021/05/13 11:49:08;0.00;0.00;0.62;0.00;0.00;0.62;;;;;20.60;1.00;;;;;;2268368;61;1039;-86
2021/05/13 11:51:37;13968.00;0.05;24.82;0.00;0.00;0.62;;;;;20.50;1.00;;;;;;2255802;61;1091;-87
2021/05/13 11:54:06;39426.00;0.13;68.90;0.00;0.00;0.62;;;;;20.40;1.00;;;;;;2255861;61;1050;-87
2021/05/13 11:56:34;0.00;0.00;0.62;0.00;0.00;0.62;;;;;20.40;1.00;;;;;;2255753;61;2016;-86
2021/05/13 11:59:01;0.00;0.00;0.62;0.00;0.00;0.62;;;;;20.50;1.00;;;;;;2247780;61;993;-87
2021/05/13 12:01:31;0.00;0.00;0.62;0.00;0.00;0.62;;;;;20.50;1.00;;;;;;2247877;61;1101;-88
2021/05/13 12:04:08;0.00;0.00;0.62;0.00;0.00;0.62;;;;;20.80;1.00;;;;;;2239851;62;1101;-86
2021/05/13 12:06:44;117023.00;0.39;202.95;0.00;0.00;0.62;;;;;21.10;1.00;;;;;;2238505;62;1397;-87
2021/05/13 12:09:11;23716.00;0.08;41.70;0.00;0.00;0.62;;;;;21.10;1.00;;;;;;2242628;61;1047;-87
2021/05/13 12:11:38;0.00;0.00;0.62;0.00;0.00;0.62;;;;;21.30;1.00;;;;;;2251818;61;1076;-87
2021/05/13 12:14:08;67126.00;0.22;116.79;0.00;0.00;0.62;;;;;21.50;1.00;;;;;;2251788;61;1151;-86
2021/05/13 12:16:35;0.00;0.00;0.62;0.00;0.00;0.62;;;;;21.60;1.00;;;;;;2252989;61;1995;-87
2021/05/13 12:19:05;0.00;0.00;0.62;0.00;0.00;0.62;;;;;21.70;1.00;;;;;;2256369;61;1110;-86
2021/05/13 12:21:34;16198.00;0.05;28.69;0.00;0.00;0.62;;;;;21.60;1.00;;;;;;2260377;61;1120;-86
2021/05/13 12:24:03;0.00;0.00;0.62;0.00;0.00;0.62;;;;;21.70;1.00;;;;;;2268899;61;1085;-88
2021/05/13 12:26:32;0.00;0.00;0.62;0.00;0.00;0.62;;;;;21.90;1.00;;;;;;2268949;61;1394;-88
2021/05/13 12:29:00;0.00;0.00;0.62;0.00;0.00;0.62;;;;;21.90;1.00;;;;;;2268623;61;1099;-87
2021/05/13 12:31:32;0.00;0.00;0.62;0.00;0.00;0.62;;;;;21.50;1.00;;;;;;2268954;61;945;-87
2021/05/13 12:34:03;0.00;0.00;0.62;0.00;0.00;0.62;;;;;22.00;1.00;;;;;;2268874;61;1110;-87
2021/05/13 12:36:30;7114.00;0.02;12.95;0.00;0.00;0.62;;;;;22.10;1.00;;;;;;2268862;61;1916;-86
2021/05/13 12:38:56;0.00;0.00;0.62;0.00;0.00;0.62;;;;;22.70;1.00;;;;;;2256355;61;920;-86
2021/05/13 12:41:26;0.00;0.00;0.62;0.00;0.00;0.62;;;;;22.80;1.00;;;;;;2256377;61;1068;-88
2021/05/13 12:44:07;57932.00;0.19;100.90;0.00;0.00;0.62;;;;;23.00;1.00;;;;;;2256190;61;1045;-86
2021/05/13 12:46:43;0.00;0.00;0.62;0.00;0.00;0.62;;;;;23.00;1.00;;;;;;2248990;61;1323;-88
2021/05/13 12:49:19;0.00;0.00;0.62;0.00;0.00;0.62;;;;;23.00;1.00;;;;;;2243618;61;1002;-88
2021/05/13 12:51:59;173060.00;0.58;299.54;72521.00;0.24;126.12;;;;;23.10;1.00;;;;;;2252361;61;968;-88
2021/05/13 12:54:26;402335.00;1.34;693.82;100556.00;0.34;174.53;;;;;23.20;1.00;;;;;;2252241;61;1143;-88
2021/05/13 12:57:12;233182.00;0.78;403.02;73406.00;0.24;127.65;;;;;22.80;1.00;;;;;;2257911;61;2011;-86
2021/05/13 12:59:39;402872.00;1.34;694.74;71263.00;0.24;123.94;;;;;22.20;1.00;;;;;;2264248;61;1040;-86
2021/05/13 13:02:06;365112.00;1.22;629.84;82042.00;0.27;142.56;;;;;21.90;1.00;;;;;;2264050;61;1028;-86
2021/05/13 13:04:53;371425.00;1.24;640.69;70917.00;0.24;123.34;;;;;21.70;1.00;;;;;;2266543;61;1032;-85
2021/05/13 13:07:20;222793.00;0.74;385.15;0.00;0.00;0.62;;;;;21.70;1.00;;;;;;2256227;61;1361;-88
2021/05/13 13:09:47;495120.00;1.65;853.42;0.00;0.00;0.62;;;;;21.60;1.00;;;;;;2256307;61;1052;-88
2021/05/13 13:12:15;84499.00;0.28;146.81;0.00;0.00;0.62;;;;;21.20;1.00;;;;;;2256129;61;1684;-87
2021/05/13 13:14:44;247896.00;0.83;428.33;83928.00;0.28;145.82;;;;;20.80;1.00;;;;;;2256207;61;1728;-87
2021/05/13 13:17:34;175270.00;0.58;303.34;81097.00;0.27;140.93;;;;;20.70;1.00;;;;;;2256135;61;1927;-87
2021/05/13 13:20:05;477524.00;1.59;823.14;71488.00;0.24;124.33;;;;;20.90;1.00;;;;;;2256297;61;1270;-86
2021/05/13 13:22:36;514642.00;1.72;887.04;78796.00;0.26;136.96;;;;;20.80;1.00;;;;;;2244274;62;1012;-87
2021/05/13 13:25:08;252338.00;0.84;435.97;76937.00;0.26;133.75;;;;;21.20;1.00;;;;;;2248806;61;1009;-87
2021/05/13 13:27:38;207770.00;0.69;359.30;75356.00;0.25;131.01;;;;;21.20;1.00;;;;;;2256166;61;1714;-87
2021/05/13 13:30:07;254222.00;0.85;439.21;85731.00;0.29;148.94;;;;;21.10;1.00;;;;;;2256218;61;1079;-86
2021/05/13 13:32:33;225299.00;0.75;389.46;69825.00;0.23;121.46;;;;;21.20;1.00;;;;;;2254727;61;1028;-86
2021/05/13 13:35:05;215544.00;0.72;372.68;79379.00;0.26;137.96;;;;;21.50;1.00;;;;;;2256179;61;1287;-87
2021/05/13 13:37:31;235079.00;0.78;406.29;75656.00;0.25;131.53;;;;;21.40;1.00;;;;;;2256157;61;1936;-87
2021/05/13 13:39:58;284184.00;0.95;490.73;76049.00;0.25;132.21;;;;;21.50;1.00;;;;;;2259263;61;1587;-85
2021/05/13 13:42:25;209900.00;0.70;362.96;81313.00;0.27;141.31;;;;;20.80;1.00;;;;;;2268639;61;1114;-86
2021/05/13 13:44:52;336318.00;1.12;580.35;80567.00;0.27;140.02;;;;;20.10;1.00;;;;;;2268620;61;1146;-86
2021/05/13 13:47:20;218028.00;0.73;376.95;85835.00;0.29;149.12;;;;;19.70;1.00;;;;;;2258286;61;1453;-86
2021/05/13 13:49:46;308866.00;1.03;533.16;70484.00;0.23;122.60;;;;;19.60;1.00;;;;;;2268681;61;1116;-87
2021/05/13 13:52:13;165601.00;0.55;286.69;72219.00;0.24;125.59;;;;;19.60;1.00;;;;;;2268667;61;1092;-87
2021/05/13 13:54:39;168575.00;0.56;291.81;74476.00;0.25;129.49;;;;;20.00;1.00;;;;;;2268610;61;1037;-86
2021/05/13 13:57:06;158603.00;0.53;274.63;68483.00;0.23;119.14;;;;;19.80;1.00;;;;;;2268509;61;1919;-86
2021/05/13 13:59:32;210527.00;0.70;364.04;80028.00;0.27;139.09;;;;;18.80;1.00;;;;;;2268620;61;1051;-86
2021/05/13 14:01:59;170681.00;0.57;295.44;80244.00;0.27;139.46;;;;;19.10;1.00;;;;;;2268644;61;978;-86
2021/05/13 14:04:27;183349.00;0.61;317.26;86675.00;0.29;150.57;;;;;19.10;1.00;;;;;;2268599;61;1045;-86
2021/05/13 14:06:53;173729.00;0.58;300.69;76440.00;0.25;132.89;;;;;19.10;1.00;;;;;;2268488;61;1368;-87
2021/05/13 14:09:20;170935.00;0.57;295.88;79242.00;0.26;137.73;;;;;19.30;1.00;;;;;;2268619;61;1283;-87
2021/05/13 14:11:46;213233.00;0.71;368.70;80549.00;0.27;139.99;;;;;19.70;1.00;;;;;;2268515;61;1512;-86
2021/05/13 14:14:12;173006.00;0.58;299.44;76881.00;0.26;133.65;;;;;19.70;1.00;;;;;;2268500;61;1581;-84
2021/05/13 14:16:40;0.00;0.00;0.62;0.00;0.00;0.62;;;;;19.90;1.00;;;;;;2268325;61;2016;-85
2021/05/13 14:19:08;0.00;0.00;0.62;0.00;0.00;0.62;;;;;19.90;1.00;;;;;;2256059;61;955;-86
2021/05/13 14:21:35;0.00;0.00;0.62;0.00;0.00;0.62;;;;;19.90;1.00;;;;;;2256051;61;1660;-85
2021/05/13 14:24:01;0.00;0.00;0.62;0.00;0.00;0.62;;;;;19.70;1.00;;;;;;2256089;61;1033;-86
2021/05/13 14:26:28;0.00;0.00;0.62;0.00;0.00;0.62;;;;;19.30;1.00;;;;;;2256032;61;1382;-86
2021/05/13 14:28:54;0.00;0.00;0.62;0.00;0.00;0.62;;;;;19.00;1.00;;;;;;2256116;61;1061;-86
2021/05/13 14:31:20;0.00;0.00;0.62;0.00;0.00;0.62;;;;;19.30;1.00;;;;;;2256025;61;1045;-84
2021/05/13 14:33:47;0.00;0.00;0.62;0.00;0.00;0.62;;;;;19.40;1.00;;;;;;2256014;61;1049;-85
2021/05/13 14:36:14;23645.00;0.08;41.58;0.00;0.00;0.62;;;;;19.30;1.00;;;;;;2257304;61;1995;-84
2021/05/13 14:38:41;98001.00;0.33;170.12;31196.00;0.10;54.65;;;;;19.40;1.00;;;;;;2268496;61;1127;-85
2021/05/13 14:41:08;0.00;0.00;0.62;0.00;0.00;0.62;;;;;19.20;1.00;;;;;;2261358;61;963;-85
2021/05/13 14:43:34;0.00;0.00;0.62;0.00;0.00;0.62;;;;;19.10;1.00;;;;;;2267063;61;1103;-87
2021/05/13 14:46:01;0.00;0.00;0.62;0.00;0.00;0.62;;;;;18.90;1.00;;;;;;2268408;61;1396;-86
2021/05/13 14:48:33;8426.00;0.03;15.22;0.00;0.00;0.62;;;;;18.50;1.00;;;;;;2258193;61;1004;-85
2021/05/13 14:50:59;188151.00;0.63;325.53;77849.00;0.26;135.32;;;;;18.40;1.00;;;;;;2268552;61;930;-86
2021/05/13 14:53:26;0.00;0.00;0.62;0.00;0.00;0.62;;;;;17.90;1.00;;;;;;2268509;61;912;-87
2021/05/13 14:55:53;235393.00;0.78;406.83;102070.00;0.34;177.14;;;;;17.80;1.00;;;;;;2268196;61;1922;-87
2021/05/13 14:58:19;0.00;0.00;0.62;0.00;0.00;0.62;;;;;17.70;1.00;;;;;;2257771;61;1088;-88
2021/05/13 15:00:51;92029.00;0.31;159.81;8286.00;0.03;14.98;;;;;17.90;1.00;;;;;;2268353;61;1070;-88
2021/05/13 15:03:17;0.00;0.00;0.62;0.00;0.00;0.62;;;;;17.80;1.00;;;;;;2268468;61;1032;-87
2021/05/13 15:05:44;0.00;0.00;0.62;0.00;0.00;0.62;;;;;17.60;1.00;;;;;;2268367;61;1391;-87
2021/05/13 15:08:11;0.00;0.00;0.62;0.00;0.00;0.62;;;;;17.50;1.00;;;;;;2268437;61;965;-88
2021/05/13 15:10:38;92564.00;0.31;160.73;13253.00;0.04;23.58;;;;;17.30;1.00;;;;;;2268421;61;1026;-87
2021/05/13 15:13:06;0.00;0.00;0.62;0.00;0.00;0.62;;;;;16.70;1.00;;;;;;2268373;61;1611;-87
2021/05/13 15:15:33;0.00;0.00;0.62;0.00;0.00;0.62;;;;;16.70;1.00;;;;;;2268364;61;2001;-87
2021/05/13 15:17:59;116831088.00;389.44;64594892.00;116680912.00;388.94;64345904.00;;;;;16.70;1.00;;;;;;2268379;61;1403;-87
2021/05/13 15:20:25;0.00;0.00;0.62;0.00;0.00;0.62;;;;;16.30;1.00;;;;;;2268413;61;1164;-86
2021/05/13 15:22:52;116647104.00;388.82;64289932.00;116514184.00;388.38;64070216.00;;;;;16.50;1.00;;;;;;2268408;61;922;-87
2021/05/13 15:25:19;116488264.00;388.29;64027432.00;116438208.00;388.13;63944852.00;;;;;16.40;1.00;;;;;;2268412;61;1150;-87
2021/05/13 15:30:14;414525.00;1.38;714.78;100524.00;0.34;174.48;;;;;16.60;1.00;;;;;;2273561;61;1428;-89
2021/05/13 15:32:43;219132.00;0.73;378.85;78691.00;0.26;136.78;;;;;16.90;1.00;;;;;;2271966;61;1175;-88